Flight Track Log - Related Links

Times and Time Zones

All times are in EDT time to prevent confusion due to time zone crossing. See the NRL950 flight status page for this flight to view local times or setup timezone preferences in your user account.

Time Position Orientation Groundspeed Altitude Reporting Facility
EDT Latitude Longitude Course Direction KTS MPH feet Rate Location/Type
Wed 10:16:00 AM 48.7635 -78.2151 338° Northwest  Level FlightAware Approximate
Wed 10:17:00 AM 48.8658 -78.2787 338° Northwest  Level FlightAware Approximate
Wed 10:18:00 AM 48.9687 -78.3399 339° North  Level FlightAware Approximate
Wed 10:18:06 AM 48.7000 -78.1500 337° Northwest 350 403 17,100  Level Montreal Center
Wed 10:19:00 AM 49.0719 -78.4002 339° North  Level FlightAware Approximate
Wed 10:19:06 AM 48.8000 -78.2167 336° Northwest 360 414 19,000  Level Montreal Center
Wed 10:20:00 AM 49.1741 -78.4641 337° Northwest  Level FlightAware Approximate
Wed 10:20:06 AM 48.8833 -78.2667 338° Northwest 360 414 21,300  Level Montreal Center
Wed 10:21:00 AM 49.2760 -78.5296 337° Northwest  Level FlightAware Approximate
Wed 10:21:06 AM 48.9667 -78.3500 327° Northwest 340 391 23,300  Level Montreal Center
Wed 10:22:00 AM 49.3762 -78.6001 337° Northwest  Level FlightAware Approximate
Wed 10:22:06 AM 49.0500 -78.4000 339° North 360 414 24,400  Level Montreal Center
Wed 10:23:00 AM 49.4782 -78.6655 337° Northwest  Level FlightAware Approximate
Wed 10:23:06 AM 49.1500 -78.4667 336° Northwest 370 426 24,900  Level Montreal Center
Wed 10:24:06 AM 49.2667 -78.5500 335° Northwest 410 472 26,000 1,300 Climbing Montreal Center
Wed 10:25:06 AM 49.3500 -78.6000 339° North 370 426 27,500 1,400 Climbing Montreal Center
Wed 10:26:06 AM 49.4500 -78.6833 332° Northwest 390 449 28,800 950 Climbing Montreal Center
Wed 10:27:06 AM 49.5500 -78.7333 342° North 410 472 29,400 800 Climbing Montreal Center
Wed 10:28:06 AM 49.6667 -78.8000 340° North 400 460 30,400 1,050 Climbing Montreal Center
Wed 10:29:06 AM 49.7667 -78.8833 332° Northwest 400 460 31,500 850 Climbing Montreal Center
Wed 10:30:06 AM 49.8667 -78.9333 342° North 390 449 32,100 300 Climbing Montreal Center
Wed 10:31:06 AM 49.9667 -79.0333 327° Northwest 400 460 32,100  Level Montreal Center
Wed 10:32:06 AM 50.0667 -79.0833 342° North 400 460 32,100  Level Montreal Center
Wed 10:33:06 AM 50.1667 -79.1667 332° Northwest 390 449 32,100  Level Montreal Center
Wed 10:34:06 AM 50.2667 -79.2333 337° Northwest 390 449 32,100  Level Montreal Center
Wed 10:35:06 AM 50.3833 -79.3167 336° Northwest 400 460 32,100  Level Montreal Center
Wed 10:36:06 AM 50.4667 -79.3833 333° Northwest 390 449 32,100  Level Montreal Center
Wed 10:37:06 AM 50.5833 -79.4667 336° Northwest 390 449 32,100  Level Montreal Center
Wed 10:38:06 AM 50.6833 -79.5167 342° North 390 449 32,100  Level Montreal Center
Wed 10:39:06 AM 50.7667 -79.5833 333° Northwest 400 460 32,100  Level Montreal Center
Wed 10:40:06 AM 50.8667 -79.6667 332° Northwest 390 449 32,100  Level Montreal Center
Wed 10:41:06 AM 50.9667 -79.7333 337° Northwest 390 449 32,100  Level Montreal Center
Wed 10:42:06 AM 51.0667 -79.8167 332° Northwest 390 449 32,100  Level Montreal Center
Wed 10:43:06 AM 51.1667 -79.8833 337° Northwest 390 449 32,100  Level Montreal Center
Wed 10:44:06 AM 51.2667 -79.9667 332° Northwest 390 449 32,100  Level Montreal Center
Wed 10:45:06 AM 51.3667 -80.0333 337° Northwest 390 449 32,100  Level Montreal Center
Wed 10:46:06 AM 51.4667 -80.1333 328° Northwest 390 449 32,100  Level Montreal Center
Wed 10:47:06 AM 51.5667 -80.1833 343° North 400 460 32,100  Level Montreal Center
Wed 10:48:06 AM 51.6833 -80.2833 332° Northwest 400 460 32,100  Level Montreal Center
Wed 10:49:06 AM 51.7833 -80.3500 338° Northwest 400 460 32,100  Level Montreal Center
Wed 10:50:06 AM 51.8833 -80.4167 338° Northwest 410 472 32,100  Level Montreal Center
Wed 10:51:06 AM 51.9667 -80.5000 328° Northwest 410 472 32,100  Level Montreal Center
Wed 10:52:06 AM 52.0667 -80.5667 338° Northwest 400 460 32,100  Level Montreal Center
Wed 10:53:06 AM 52.1833 -80.6667 332° Northwest 400 460 32,100  Level Montreal Center
Wed 10:54:06 AM 52.2833 -80.7333 338° Northwest 410 472 32,100  Level Montreal Center
Wed 10:55:06 AM 52.3833 -80.8167 333° Northwest 410 472 32,100  Level Montreal Center
Wed 10:56:06 AM 52.4833 -80.9167 329° Northwest 400 460 32,100  Level Montreal Center
Wed 10:57:06 AM 52.6000 -80.9833 341° North 400 460 32,100  Level Montreal Center
Wed 10:58:06 AM 52.7000 -81.0833 329° Northwest 410 472 32,100  Level Montreal Center
Wed 10:59:06 AM 52.8000 -81.1500 338° Northwest 410 472 32,100  Level Montreal Center
Wed 11:00:06 AM 52.9000 -81.2500 329° Northwest 410 472 32,100  Level Montreal Center
Wed 11:01:06 AM 53.0000 -81.3167 338° Northwest 410 472 32,100  Level Montreal Center
Wed 11:02:06 AM 53.1167 -81.4167 333° Northwest 420 483 32,100  Level Montreal Center
Wed 11:03:06 AM 53.2167 -81.4833 338° Northwest 410 472 32,100  Level Montreal Center
Wed 11:04:06 AM 53.3167 -81.5833 329° Northwest 420 483 32,100  Level Montreal Center
Wed 11:05:06 AM 53.4167 -81.6833 329° Northwest 420 483 32,100  Level Montreal Center
Wed 11:06:06 AM 53.5167 -81.7500 338° Northwest 420 483 32,100  Level Montreal Center
Wed 11:07:06 AM 53.6333 -81.8500 333° Northwest 420 483 32,100  Level Montreal Center
Wed 11:08:06 AM 53.7333 -81.9167 338° Northwest 420 483 32,100  Level Montreal Center
Wed 11:09:06 AM 53.8500 -82.0167 333° Northwest 420 483 32,100  Level Montreal Center
Wed 11:10:06 AM 53.9500 -82.0833 339° North 420 483 32,100  Level Montreal Center
Wed 11:11:06 AM 54.0333 -82.1833 325° Northwest 410 472 32,100  Level Montreal Center
Wed 11:12:06 AM 54.1500 -82.3000 330° Northwest 420 483 32,100  Level Montreal Center
Wed 11:13:06 AM 54.2667 -82.3667 342° North 420 483 32,100  Level Montreal Center
Wed 11:14:06 AM 54.3667 -82.4667 330° Northwest 420 483 32,100  Level Montreal Center
Wed 11:15:06 AM 54.4833 -82.5500 337° Northwest 410 472 32,100  Level Montreal Center
Wed 11:16:06 AM 54.5667 -82.6500 325° Northwest 420 483 32,100  Level Montreal Center
Wed 11:17:06 AM 54.6667 -82.7167 339° North 420 483 32,100  Level Montreal Center
Wed 11:18:03 AM 54.7333 -82.7000 North 420 483 32,100  Level Edmonton Center
Wed 11:19:06 AM 54.8833 -82.9333 318° Northwest 420 483 32,100  Level Montreal Center
Wed 11:20:06 AM 54.9833 -83.0167 334° Northwest 420 483 32,100  Level Montreal Center
Wed 11:21:06 AM 55.0833 -83.1167 330° Northwest 420 483 32,100  Level Montreal Center
Wed 11:22:06 AM 55.1833 -83.2000 335° Northwest 410 472 32,100  Level Montreal Center
Wed 11:23:06 AM 55.3000 -83.3000 334° Northwest 420 483 32,100  Level Montreal Center
Wed 11:24:06 AM 55.3833 -83.4167 322° Northwest 410 472 32,100  Level Montreal Center
Wed 11:25:06 AM 55.5000 -83.5167 334° Northwest 420 483 32,100  Level Montreal Center
Wed 11:26:06 AM 55.6000 -83.6000 335° Northwest 420 483 32,100  Level Montreal Center
Wed 11:27:06 AM 55.7167 -83.7167 331° Northwest 420 483 32,100  Level Montreal Center
Wed 11:28:06 AM 55.8000 -83.8167 326° Northwest 420 483 32,100  Level Montreal Center
Wed 11:29:06 AM 55.9000 -83.9000 335° Northwest 420 483 32,100  Level Montreal Center
Wed 11:30:03 AM 55.9833 -83.8667 13° North 420 483 32,100  Level Edmonton Center
Wed 11:31:03 AM 56.0667 -83.9833 322° Northwest 420 483 32,100  Level Edmonton Center
Wed 11:32:03 AM 56.1667 -84.0833 331° Northwest 420 483 32,100  Level Edmonton Center
Wed 11:34:00 AM 56.3512 -84.2823 329° Northwest  Level FlightAware Approximate
Wed 11:41:00 AM 57.0122 -85.0105 335° Northwest  Level FlightAware Approximate
Wed 11:42:00 AM 57.1119 -85.0971 335° Northwest  Level FlightAware Approximate
Wed 11:43:00 AM 57.2117 -85.1841 335° Northwest  Level FlightAware Approximate
Wed 11:44:00 AM 57.3113 -85.2716 335° Northwest  Level FlightAware Approximate
Wed 11:45:00 AM 57.4109 -85.3596 335° Northwest  Level FlightAware Approximate
Wed 11:46:00 AM 57.5104 -85.4480 334° Northwest  Level FlightAware Approximate
Wed 11:47:00 AM 57.6099 -85.5370 334° Northwest  Level FlightAware Approximate
Wed 11:48:00 AM 57.7093 -85.6264 334° Northwest  Level FlightAware Approximate
Wed 11:49:00 AM 57.8086 -85.7163 334° Northwest  Level FlightAware Approximate
Wed 11:50:00 AM 57.9079 -85.8067 334° Northwest  Level FlightAware Approximate
Wed 11:51:00 AM 58.0071 -85.8976 334° Northwest  Level FlightAware Approximate
Wed 11:52:00 AM 58.1063 -85.9890 334° Northwest  Level FlightAware Approximate
Wed 11:53:00 AM 58.2053 -86.0810 334° Northwest  Level FlightAware Approximate
Wed 11:54:00 AM 58.3044 -86.1734 334° Northwest  Level FlightAware Approximate
Wed 11:55:00 AM 58.4033 -86.2664 334° Northwest  Level FlightAware Approximate
Wed 11:56:00 AM 58.5022 -86.3598 334° Northwest  Level FlightAware Approximate
Wed 11:57:00 AM 58.6010 -86.4539 334° Northwest  Level FlightAware Approximate
Wed 11:58:00 AM 58.6990 -86.5511 331° Northwest  Level FlightAware Approximate
Wed 11:59:00 AM 58.7955 -86.6542 331° Northwest  Level FlightAware Approximate
Wed 12:00:00 PM 58.8919 -86.7579 331° Northwest  Level FlightAware Approximate
Wed 12:01:00 PM 58.9882 -86.8622 331° Northwest  Level FlightAware Approximate
Wed 12:02:00 PM 59.0844 -86.9670 331° Northwest  Level FlightAware Approximate
Wed 12:03:00 PM 59.1806 -87.0724 331° Northwest  Level FlightAware Approximate
Wed 12:04:00 PM 59.2766 -87.1785 331° Northwest  Level FlightAware Approximate
Wed 12:05:00 PM 59.3726 -87.2851 330° Northwest  Level FlightAware Approximate
Wed 12:06:00 PM 59.4685 -87.3924 330° Northwest  Level FlightAware Approximate
Wed 12:07:00 PM 59.5643 -87.5002 330° Northwest  Level FlightAware Approximate
Wed 12:08:00 PM 59.6600 -87.6087 330° Northwest  Level FlightAware Approximate
Wed 12:09:00 PM 59.7556 -87.7178 330° Northwest  Level FlightAware Approximate
Wed 12:10:00 PM 59.8511 -87.8275 330° Northwest  Level FlightAware Approximate
Wed 12:11:00 PM 59.9465 -87.9378 330° Northwest  Level FlightAware Approximate
Wed 12:12:00 PM 60.0410 -88.0517 328° Northwest  Level FlightAware Approximate
Wed 12:13:00 PM 60.1342 -88.1700 328° Northwest  Level FlightAware Approximate
Wed 12:14:00 PM 60.2273 -88.2889 328° Northwest  Level FlightAware Approximate
Wed 12:15:00 PM 60.3204 -88.4085 328° Northwest  Level FlightAware Approximate
Wed 12:16:00 PM 60.4133 -88.5287 327° Northwest  Level FlightAware Approximate
Wed 12:17:00 PM 60.5061 -88.6497 327° Northwest  Level FlightAware Approximate
Wed 12:18:00 PM 60.5988 -88.7714 327° Northwest  Level FlightAware Approximate
Wed 12:19:00 PM 60.6913 -88.8937 327° Northwest  Level FlightAware Approximate
Wed 12:20:00 PM 60.7838 -89.0168 327° Northwest  Level FlightAware Approximate
Wed 12:21:00 PM 60.8762 -89.1405 327° Northwest  Level FlightAware Approximate
Wed 12:22:00 PM 60.9684 -89.2650 327° Northwest  Level FlightAware Approximate
Wed 12:23:00 PM 61.0605 -89.3903 327° Northwest  Level FlightAware Approximate
Wed 12:24:00 PM 61.1525 -89.5162 327° Northwest  Level FlightAware Approximate
Wed 12:25:00 PM 61.2444 -89.6429 326° Northwest  Level FlightAware Approximate
Wed 12:26:00 PM 61.3362 -89.7703 326° Northwest  Level FlightAware Approximate
Wed 12:27:00 PM 61.4279 -89.8985 326° Northwest  Level FlightAware Approximate
Wed 12:28:00 PM 61.5190 -90.0287 324° Northwest  Level FlightAware Approximate
Wed 12:29:00 PM 61.6084 -90.1645 324° Northwest  Level FlightAware Approximate
Wed 12:30:00 PM 61.6976 -90.3011 324° Northwest  Level FlightAware Approximate
Wed 12:31:00 PM 61.7867 -90.4385 324° Northwest  Level FlightAware Approximate
Wed 12:32:00 PM 61.8757 -90.5766 324° Northwest  Level FlightAware Approximate
Wed 12:33:00 PM 61.9627 -90.7204 319° Northwest  Level FlightAware Approximate
Wed 12:34:00 PM 62.0470 -90.8719 323° Northwest  Level FlightAware Approximate
Wed 12:35:00 PM 62.1352 -91.0135 323° Northwest  Level FlightAware Approximate
Wed 12:36:00 PM 62.2232 -91.1560 323° Northwest  Level FlightAware Approximate
Wed 12:37:00 PM 62.3111 -91.2993 323° Northwest  Level FlightAware Approximate
Wed 12:38:00 PM 62.3988 -91.4434 323° Northwest  Level FlightAware Approximate
Wed 12:39:00 PM 62.4864 -91.5884 323° Northwest  Level FlightAware Approximate
Wed 12:40:00 PM 62.5738 -91.7342 322° Northwest  Level FlightAware Approximate
Wed 12:41:00 PM 62.6611 -91.8809 322° Northwest  Level FlightAware Approximate
Wed 12:42:00 PM 62.7482 -92.0285 322° Northwest  Level FlightAware Approximate
Wed 12:43:00 PM 62.8360 -92.1746 324° Northwest  Level FlightAware Approximate
Wed 12:44:00 PM 62.9247 -92.3184 324° Northwest  Level FlightAware Approximate
Wed 12:45:00 PM 63.0133 -92.4630 323° Northwest  Level FlightAware Approximate
Wed 12:46:00 PM 63.1018 -92.6085 323° Northwest  Level FlightAware Approximate
Wed 12:47:00 PM 63.1901 -92.7549 323° Northwest  Level FlightAware Approximate
Wed 12:48:00 PM 63.2782 -92.9021 323° Northwest  Level FlightAware Approximate
Wed 12:49:00 PM 63.3665 -93.0494 323° Northwest  Level FlightAware Approximate
Wed 12:50:00 PM 63.4549 -93.1970 323° Northwest  Level FlightAware Approximate
Wed 12:51:00 PM 63.5422 -93.3481 323° Northwest  Level FlightAware Approximate
Wed 12:52:00 PM 63.6306 -93.4963 323° Northwest  Level FlightAware Approximate
Wed 12:53:00 PM 63.7189 -93.6454 323° Northwest  Level FlightAware Approximate
Wed 12:54:00 PM 63.8070 -93.7957 322° Northwest  Level FlightAware Approximate
Wed 12:55:00 PM 63.8939 -93.9499 322° Northwest  Level FlightAware Approximate
Wed 12:56:00 PM 63.9806 -94.1051 322° Northwest  Level FlightAware Approximate
Wed 12:57:00 PM 64.0673 -94.2610 322° Northwest  Level FlightAware Approximate
Wed 12:58:00 PM 64.1539 -94.4174 322° Northwest  Level FlightAware Approximate
Wed 12:59:00 PM 64.2403 -94.5749 322° Northwest  Level FlightAware Approximate
Wed 01:00:00 PM 64.3266 -94.7333 322° Northwest  Level FlightAware Approximate
Wed 01:01:00 PM 64.4127 -94.8927 321° Northwest  Level FlightAware Approximate
Wed 01:02:00 PM 64.4986 -95.0533 321° Northwest  Level FlightAware Approximate
Wed 01:03:00 PM 64.5843 -95.2148 321° Northwest  Level FlightAware Approximate
Wed 01:04:00 PM 64.6699 -95.3773 321° Northwest  Level FlightAware Approximate
Wed 01:05:00 PM 64.7536 -95.5454 318° Northwest  Level FlightAware Approximate
Wed 01:06:00 PM 64.8352 -95.7195 328° Northwest  Level FlightAware Approximate
Wed 01:07:00 PM 64.9224 -95.8780 320° Northwest  Level FlightAware Approximate
Wed 01:08:00 PM 65.0066 -96.0464 320° Northwest  Level FlightAware Approximate
Wed 01:09:00 PM 65.0167 -96.0667 320° Northwest  Level FlightAware Approximate
Wed 01:10:00 PM 65.0167 -96.0667 320° Northwest  Level FlightAware Approximate
Wed 01:11:00 PM 65.0167 -96.0667 320° Northwest  Level FlightAware Approximate
Wed 01:12:00 PM 65.0167 -96.0667 320° Northwest  Level FlightAware Approximate
Wed 01:13:00 PM 65.0167 -96.0667 320° Northwest  Level FlightAware Approximate
Wed 01:14:00 PM 65.0167 -96.0667 320° Northwest  Level FlightAware Approximate
Wed 01:15:00 PM 65.0167 -96.0667 320° Northwest  Level FlightAware Approximate
Wed 01:16:00 PM 65.0167 -96.0667 320° Northwest  Level FlightAware Approximate
Wed 01:17:00 PM 65.0167 -96.0667 320° Northwest  Level FlightAware Approximate
Wed 01:18:00 PM 65.0167 -96.0667 320° Northwest  Level FlightAware Approximate
Wed 01:19:00 PM 65.0167 -96.0667 320° Northwest  Level FlightAware Approximate
Wed 01:20:00 PM 65.0167 -96.0667 320° Northwest  Level FlightAware Approximate
Wed 01:21:00 PM 65.0167 -96.0667 320° Northwest  Level FlightAware Approximate
Wed 01:22:00 PM 65.0167 -96.0667 320° Northwest  Level FlightAware Approximate

Login

Don't have an account? Register now (free) for customized features, flight alerts, and more!